Time;durP1;ratioP1;P1;durP2;ratioP2;P2;SDS_P1;SDS_P2;PMS_P1;PMS_P2;Temp;Humidity;BMP_temperature;BMP_pressure;BME280_temperature;BME280_humidity;BME280_pressure;Samples;Min_cycle;Max_cycle;Signal;HPM_P1;HPM_P2
2022/12/09 00:00:15;;;;;;;5.78;3.05;;;;;;;;;;6208299;23;20035;-48
2022/12/09 00:02:42;;;;;;;;;;;;;;;;;;6207773;23;20098;-55
2022/12/09 00:05:16;;;;;;;7.72;3.00;;;;;;;;;;6207796;23;19938;-63
2022/12/09 00:07:43;;;;;;;9.35;3.42;;;;;;;;;;6206690;23;20021;-54
2022/12/09 00:10:17;;;;;;;8.95;2.78;;;;;;;;;;6207539;23;20021;-55
2022/12/09 00:12:45;;;;;;;;;;;;;;;;;;6206797;23;20028;-53
2022/12/09 00:15:12;;;;;;;6.88;3.15;;;;;;;;;;6209695;23;19920;-55
2022/12/09 00:17:47;;;;;;;8.88;3.65;;;;;;;;;;6205503;23;20432;-52
2022/12/09 00:20:14;;;;;;;5.97;2.95;;;;;;;;;;6210311;23;20366;-58
2022/12/09 00:22:47;;;;;;;8.48;3.58;;;;;;;;;;6209326;23;20493;-55
2022/12/09 00:25:27;;;;;;;9.98;3.13;;;;;;;;;;6209061;23;20089;-52
2022/12/09 00:28:01;;;;;;;7.97;2.80;;;;;;;;;;6207892;23;20044;-68
2022/12/09 00:30:28;;;;;;;5.10;2.70;;;;;;;;;;6210526;23;20048;-68
2022/12/09 00:32:56;;;;;;;4.00;2.60;;;;;;;;;;6207803;23;20027;-67
2022/12/09 00:35:29;;;;;;;6.60;2.75;;;;;;;;;;6208639;23;20501;-67
2022/12/09 00:37:57;;;;;;;7.18;2.85;;;;;;;;;;6209089;23;20512;-67
2022/12/09 00:40:30;;;;;;;8.52;2.63;;;;;;;;;;6209103;23;20028;-67
2022/12/09 00:42:58;;;;;;;5.28;2.80;;;;;;;;;;6208324;23;20024;-46
2022/12/09 00:45:25;;;;;;;3.90;2.30;;;;;;;;;;6209688;23;20111;-56
2022/12/09 00:47:58;;;;;;;4.60;2.53;;;;;;;;;;6208247;23;20079;-51
2022/12/09 00:50:26;;;;;;;7.32;2.70;;;;;;;;;;6209851;23;20024;-54
2022/12/09 00:52:53;;;;;;;6.05;2.40;;;;;;;;;;6207875;23;20027;-51
2022/12/09 00:55:26;;;;;;;7.55;2.97;;;;;;;;;;6210136;23;20016;-54
2022/12/09 00:57:54;;;;;;;5.97;2.65;;;;;;;;;;6208191;23;20029;-51
2022/12/09 01:00:27;;;;;;;8.05;2.38;;;;;;;;;;6209613;23;20051;-51
2022/12/09 01:02:55;;;;;;;7.32;2.50;;;;;;;;;;6208735;23;20356;-46
2022/12/09 01:05:23;;;;;;;10.02;3.03;;;;;;;;;;6209929;23;20043;-51
2022/12/09 01:07:56;;;;;;;6.55;2.58;;;;;;;;;;6208999;23;20024;-50
2022/12/09 01:10:23;;;;;;;4.93;2.50;;;;;;;;;;6210314;23;20640;-54
2022/12/09 01:12:58;;;;;;;6.30;2.55;;;;;;;;;;6208098;23;20091;-51
2022/12/09 01:15:25;;;;;;;6.30;2.70;;;;;;;;;;6209854;23;20046;-52
2022/12/09 01:17:52;;;;;;;5.47;2.47;;;;;;;;;;6210156;23;20096;-49
2022/12/09 01:20:26;;;;;;;8.65;2.72;;;;;;;;;;6210387;23;20029;-64
2022/12/09 01:22:54;;;;;;;6.75;2.42;;;;;;;;;;6209177;23;20426;-52
2022/12/09 01:25:40;;;;;;;5.25;2.40;;;;;;;;;;6207933;23;20020;-68
2022/12/09 01:28:14;;;;;;;7.05;2.25;;;;;;;;;;6209557;23;20033;-67
2022/12/09 01:30:48;;;;;;;5.47;2.30;;;;;;;;;;6206891;23;20021;-68
2022/12/09 01:33:23;;;;;;;8.50;3.10;;;;;;;;;;6208890;23;20044;-68
2022/12/09 01:35:50;;;;;;;5.53;2.60;;;;;;;;;;6209762;23;20028;-67
2022/12/09 01:38:17;;;;;;;5.53;2.30;;;;;;;;;;6209916;23;20539;-67
2022/12/09 01:40:51;;;;;;;4.10;2.10;;;;;;;;;;6207603;23;20408;-64
2022/12/09 01:43:18;;;;;;;8.00;2.30;;;;;;;;;;6209748;23;20028;-49
2022/12/09 01:45:59;;;;;;;5.15;2.20;;;;;;;;;;6208098;23;20532;-46
2022/12/09 01:48:27;;;;;;;5.30;2.47;;;;;;;;;;6207660;23;20021;-48
2022/12/09 01:51:04;;;;;;;3.50;2.00;;;;;;;;;;6208951;23;20022;-46
2022/12/09 01:53:37;;;;;;;7.47;2.22;;;;;;;;;;6208672;23;20024;-47
2022/12/09 01:56:16;;;;;;;5.45;2.22;;;;;;;;;;6209374;23;20043;-46
2022/12/09 01:58:44;;;;;;;6.35;2.40;;;;;;;;;;6210136;23;20070;-64
2022/12/09 02:01:19;;;;;;;6.38;2.20;;;;;;;;;;6209560;23;20021;-46
2022/12/09 02:03:46;;;;;;;;;;;;;;;;;;6209908;23;20024;-52
2022/12/09 02:06:20;;;;;;;8.73;2.08;;;;;;;;;;6209355;23;19947;-53
2022/12/09 02:08:48;;;;;;;4.70;2.10;;;;;;;;;;6208743;23;20740;-53
2022/12/09 02:11:16;;;;;;;3.47;2.00;;;;;;;;;;6207508;23;20095;-49
2022/12/09 02:14:00;;;;;;;4.80;2.10;;;;;;;;;;6210032;23;20410;-53
2022/12/09 02:16:29;;;;;;;6.05;2.22;;;;;;;;;;6208320;23;20103;-54
2022/12/09 02:19:20;;;;;;;5.10;2.00;;;;;;;;;;6209115;23;20016;-67
2022/12/09 02:21:57;;;;;;;4.05;2.15;;;;;;;;;;6181582;23;20051;-63
2022/12/09 02:24:49;;;;;;;3.13;2.10;;;;;;;;;;6207568;23;20059;-63
2022/12/09 02:27:27;;;;;;;3.83;2.55;;;;;;;;;;6208553;23;20028;-63
2022/12/09 02:30:08;;;;;;;3.40;1.90;;;;;;;;;;6210472;23;20025;-63
2022/12/09 02:32:44;;;;;;;4.47;2.40;;;;;;;;;;6207953;23;20094;-63
2022/12/09 02:35:34;;;;;;;5.07;2.10;;;;;;;;;;6207715;23;20497;-63
2022/12/09 02:38:04;;;;;;;6.72;2.08;;;;;;;;;;6209014;23;20583;-51
2022/12/09 02:40:43;;;;;;;10.57;2.45;;;;;;;;;;6209022;23;20085;-50
2022/12/09 02:43:11;;;;;;;6.20;2.30;;;;;;;;;;6208384;23;20044;-50
2022/12/09 02:45:40;;;;;;;5.53;2.17;;;;;;;;;;6209972;23;20021;-50
2022/12/09 02:48:15;;;;;;;8.90;2.45;;;;;;;;;;6208447;23;20027;-51
2022/12/09 02:50:44;;;;;;;4.82;2.38;;;;;;;;;;6208767;23;20032;-48
2022/12/09 02:53:18;;;;;;;9.50;2.60;;;;;;;;;;6207655;23;20625;-49
2022/12/09 02:55:47;;;;;;;8.43;2.42;;;;;;;;;;6208824;23;20066;-47
2022/12/09 02:58:20;;;;;;;5.63;3.05;;;;;;;;;;6207279;23;20082;-54
2022/12/09 03:00:48;;;;;;;6.93;2.67;;;;;;;;;;6208363;23;20035;-49
2022/12/09 03:03:21;;;;;;;6.88;3.05;;;;;;;;;;6207256;23;20059;-51
2022/12/09 03:06:01;;;;;;;6.53;2.67;;;;;;;;;;6181033;23;20048;-50
2022/12/09 03:08:38;;;;;;;5.88;2.67;;;;;;;;;;6207793;23;20051;-48
2022/12/09 03:11:05;;;;;;;4.05;2.65;;;;;;;;;;6207299;23;20526;-51
2022/12/09 03:13:43;;;;;;;7.82;3.20;;;;;;;;;;6207833;23;20025;-53
2022/12/09 03:16:19;;;;;;;8.77;2.83;;;;;;;;;;6208437;23;20103;-64
2022/12/09 03:18:56;;;;;;;8.00;2.92;;;;;;;;;;6206721;23;20132;-48
2022/12/09 03:21:25;;;;;;;4.97;2.63;;;;;;;;;;6208456;23;20044;-47
2022/12/09 03:23:53;;;;;;;7.88;2.55;;;;;;;;;;6208303;23;20245;-47
2022/12/09 03:26:36;;;;;;;11.30;3.28;;;;;;;;;;6206393;23;20024;-46
2022/12/09 03:29:13;;;;;;;3.80;2.42;;;;;;;;;;6207920;23;20028;-46
2022/12/09 03:31:48;;;;;;;6.30;2.63;;;;;;;;;;6206845;23;20025;-46
2022/12/09 03:34:17;;;;;;;6.10;2.83;;;;;;;;;;6208111;23;20029;-54
2022/12/09 03:36:52;;;;;;;8.55;2.70;;;;;;;;;;6207024;23;20103;-54
2022/12/09 03:39:23;;;;;;;5.32;2.92;;;;;;;;;;6207462;23;20020;-53
2022/12/09 03:42:00;;;;;;;6.82;2.42;;;;;;;;;;6207451;23;20024;-50
2022/12/09 03:44:38;;;;;;;6.57;2.60;;;;;;;;;;6206756;23;20027;-50
2022/12/09 03:47:13;;;;;;;5.28;2.67;;;;;;;;;;6207572;23;20028;-49
2022/12/09 03:49:40;;;;;;;6.47;2.58;;;;;;;;;;6211729;23;20020;-51
2022/12/09 03:52:11;;;;;;;5.28;2.25;;;;;;;;;;6210842;23;20357;-47
2022/12/09 03:54:50;;;;;;;25.83;2.10;;;;;;;;;;6209497;23;20024;-64
2022/12/09 03:57:18;;;;;;;5.18;2.28;;;;;;;;;;6210189;23;20426;-47
2022/12/09 03:59:59;;;;;;;5.43;2.42;;;;;;;;;;6210158;23;20044;-47
2022/12/09 04:02:26;;;;;;;4.47;2.30;;;;;;;;;;6210461;23;20457;-48
2022/12/09 04:05:01;;;;;;;5.47;2.30;;;;;;;;;;6210542;23;20055;-46
2022/12/09 04:07:29;;;;;;;3.35;1.98;;;;;;;;;;6209523;23;20822;-48
2022/12/09 04:09:56;;;;;;;6.03;2.13;;;;;;;;;;6209828;23;20421;-48
2022/12/09 04:12:30;;;;;;;8.90;2.40;;;;;;;;;;6210256;23;20024;-50
2022/12/09 04:14:57;;;;;;;4.18;1.85;;;;;;;;;;6211300;23;20020;-49
2022/12/09 04:17:32;;;;;;;6.00;2.45;;;;;;;;;;6207628;23;20052;-45
2022/12/09 04:19:59;;;;;;;3.70;2.10;;;;;;;;;;6209572;23;20031;-47
2022/12/09 04:22:34;;;;;;;5.30;2.50;;;;;;;;;;6210705;23;20795;-48
2022/12/09 04:25:07;;;;;;;4.82;1.92;;;;;;;;;;6209615;23;20028;-47
2022/12/09 04:27:48;;;;;;;5.35;2.20;;;;;;;;;;6209852;23;20024;-47
2022/12/09 04:30:15;;;;;;;5.00;2.65;;;;;;;;;;6211326;23;20064;-50
2022/12/09 04:32:49;;;;;;;6.57;2.35;;;;;;;;;;6208993;23;20362;-63
2022/12/09 04:35:17;;;;;;;8.45;2.33;;;;;;;;;;6211133;23;20102;-54
2022/12/09 04:37:44;;;;;;;5.30;2.53;;;;;;;;;;6211040;23;20021;-50
2022/12/09 04:40:18;;;;;;;6.45;2.40;;;;;;;;;;6212230;23;20343;-52
2022/12/09 04:42:50;;;;;;;3.78;2.35;;;;;;;;;;6210414;23;20063;-52
2022/12/09 04:45:24;;;;;;;7.78;2.03;;;;;;;;;;6211840;23;20026;-53
2022/12/09 04:47:51;;;;;;;3.40;1.83;;;;;;;;;;6210818;23;20021;-54
2022/12/09 04:50:19;;;;;;;4.75;2.00;;;;;;;;;;6211092;23;20332;-49
2022/12/09 04:52:52;;;;;;;7.10;2.20;;;;;;;;;;6212005;23;20028;-48
2022/12/09 04:55:20;;;;;;;8.52;1.98;;;;;;;;;;6212540;23;20027;-52
2022/12/09 04:57:53;;;;;;;13.48;1.90;;;;;;;;;;6206691;23;20021;-54
2022/12/09 05:00:21;;;;;;;3.17;1.90;;;;;;;;;;6208208;23;20021;-54
2022/12/09 05:02:48;;;;;;;3.88;1.58;;;;;;;;;;6208135;23;20107;-49
2022/12/09 05:05:22;;;;;;;3.95;1.90;;;;;;;;;;6209692;23;20025;-52
2022/12/09 05:07:49;;;;;;;3.20;2.00;;;;;;;;;;6208835;23;20365;-53
2022/12/09 05:10:24;;;;;;;3.90;1.90;;;;;;;;;;6210521;23;20027;-63
2022/12/09 05:12:51;;;;;;;;;;;;;;;;;;6207862;23;20016;-67
2022/12/09 05:15:19;;;;;;;4.68;1.70;;;;;;;;;;6208375;23;19920;-67
2022/12/09 05:17:53;;;;;;;2.00;1.70;;;;;;;;;;6208349;23;20029;-67
2022/12/09 05:20:20;;;;;;;7.55;2.17;;;;;;;;;;6210296;23;20059;-67
2022/12/09 05:22:55;;;;;;;6.55;2.17;;;;;;;;;;6208208;23;20025;-66
2022/12/09 05:25:30;;;;;;;4.43;2.03;;;;;;;;;;6207806;23;20429;-67
2022/12/09 05:28:05;;;;;;;4.28;2.20;;;;;;;;;;6207669;23;20103;-52
2022/12/09 05:30:32;;;;;;;5.93;2.13;;;;;;;;;;6207758;23;20085;-63
2022/12/09 05:32:59;;;;;;;5.45;2.30;;;;;;;;;;6207103;23;20028;-49
2022/12/09 05:35:34;;;;;;;8.23;2.25;;;;;;;;;;6209843;23;20021;-49
2022/12/09 05:38:15;;;;;;;12.02;3.10;;;;;;;;;;6208402;23;20075;-49
2022/12/09 05:40:49;;;;;;;3.97;2.50;;;;;;;;;;6206644;23;20052;-49
2022/12/09 05:43:17;;;;;;;7.43;2.42;;;;;;;;;;6206490;23;20086;-51
2022/12/09 05:45:50;;;;;;;16.00;2.55;;;;;;;;;;6208500;23;20020;-48
2022/12/09 05:48:18;;;;;;;;;;;;;;;;;;6206847;23;20025;-64
2022/12/09 05:50:45;;;;;;;3.13;1.90;;;;;;;;;;6206913;23;19926;-46
2022/12/09 05:53:19;;;;;;;7.57;2.55;;;;;;;;;;6207670;23;20021;-45
2022/12/09 05:55:47;;;;;;;5.65;2.28;;;;;;;;;;6207494;23;20032;-46
2022/12/09 05:58:21;;;;;;;5.32;2.20;;;;;;;;;;6206674;23;20052;-46
2022/12/09 06:00:48;;;;;;;8.02;2.33;;;;;;;;;;6208273;23;20031;-47
2022/12/09 06:03:22;;;;;;;6.47;2.20;;;;;;;;;;6207718;23;20016;-47
2022/12/09 06:05:49;;;;;;;;;;;;;;;;;;6209033;23;20694;-55
2022/12/09 06:08:16;;;;;;;2.90;1.75;;;;;;;;;;6208353;23;20360;-49
2022/12/09 06:10:50;;;;;;;4.55;2.08;;;;;;;;;;6208793;23;20028;-49
2022/12/09 06:13:18;;;;;;;9.80;1.98;;;;;;;;;;6208217;23;20383;-54
2022/12/09 06:15:52;;;;;;;4.68;2.42;;;;;;;;;;6207612;23;20025;-51
2022/12/09 06:18:20;;;;;;;4.43;2.00;;;;;;;;;;6208195;23;20078;-50
2022/12/09 06:20:55;;;;;;;5.63;2.25;;;;;;;;;;6208022;23;20486;-50
2022/12/09 06:23:22;;;;;;;6.03;2.38;;;;;;;;;;6181361;23;20024;-49
2022/12/09 06:25:49;;;;;;;;;;;;;;;;;;6210171;23;20025;-64
2022/12/09 06:28:30;;;;;;;5.40;1.95;;;;;;;;;;6208954;23;20338;-46
2022/12/09 06:30:58;;;;;;;3.03;1.98;;;;;;;;;;6209622;23;20024;-47
2022/12/09 06:33:32;;;;;;;3.65;1.95;;;;;;;;;;6207992;23;20466;-45
2022/12/09 06:36:19;;;;;;;9.10;2.47;;;;;;;;;;6209782;23;20351;-45
2022/12/09 06:38:55;;;;;;;4.07;2.15;;;;;;;;;;6208469;23;20059;-47
2022/12/09 06:41:23;;;;;;;4.22;2.13;;;;;;;;;;6209706;23;20024;-47
2022/12/09 06:43:50;;;;;;;5.40;2.45;;;;;;;;;;6209057;23;20020;-49
2022/12/09 06:46:25;;;;;;;4.07;2.33;;;;;;;;;;6209264;23;20099;-63
2022/12/09 06:48:53;;;;;;;8.35;2.58;;;;;;;;;;6207379;23;20025;-49
2022/12/09 06:51:27;;;;;;;6.05;2.50;;;;;;;;;;6208639;23;20099;-50
2022/12/09 06:53:55;;;;;;;5.55;2.55;;;;;;;;;;6207062;23;20849;-50
2022/12/09 06:56:23;;;;;;;4.78;2.28;;;;;;;;;;6208905;23;20025;-49
2022/12/09 06:58:56;;;;;;;4.10;2.63;;;;;;;;;;6207581;23;20024;-49
2022/12/09 07:01:24;;;;;;;;;;;;;;;;;;6208672;23;20071;-52
2022/12/09 07:03:53;;;;;;;7.83;2.07;;;;;;;;;;6208146;23;19916;-67
2022/12/09 07:06:32;;;;;;;5.90;2.72;;;;;;;;;;6183590;23;20652;-55
2022/12/09 07:09:01;;;;;;;3.35;2.00;;;;;;;;;;6206343;23;20099;-53
2022/12/09 07:11:36;;;;;;;3.83;2.22;;;;;;;;;;6207909;23;20028;-54
2022/12/09 07:14:04;;;;;;;4.97;2.53;;;;;;;;;;6207942;23;20027;-54
2022/12/09 07:16:32;;;;;;;6.72;2.70;;;;;;;;;;6206754;23;20099;-56
2022/12/09 07:19:06;;;;;;;7.38;2.50;;;;;;;;;;6207452;23;20537;-54
2022/12/09 07:21:33;;;;;;;7.22;2.97;;;;;;;;;;6208648;23;20099;-49
2022/12/09 07:24:01;;;;;;;5.00;2.30;;;;;;;;;;6207434;23;20039;-63
2022/12/09 07:26:42;;;;;;;5.13;2.05;;;;;;;;;;6207243;23;20024;-49
2022/12/09 07:29:09;;;;;;;4.20;2.20;;;;;;;;;;6207954;23;20474;-51
2022/12/09 07:31:46;;;;;;;4.50;2.50;;;;;;;;;;6207589;23;20017;-50
2022/12/09 07:34:13;;;;;;;4.07;2.10;;;;;;;;;;6207016;23;20024;-47
2022/12/09 07:36:41;;;;;;;;;;;;;;;;;;6208753;23;20103;-51
2022/12/09 07:39:16;;;;;;;4.28;2.05;;;;;;;;;;6207779;23;19961;-50
2022/12/09 07:41:44;;;;;;;7.65;2.80;;;;;;;;;;6208327;23;20063;-50
2022/12/09 07:44:11;;;;;;;13.05;2.70;;;;;;;;;;6206729;23;20076;-56
2022/12/09 07:46:46;;;;;;;5.78;2.40;;;;;;;;;;6208120;23;20534;-50
2022/12/09 07:49:14;;;;;;;3.67;2.78;;;;;;;;;;6207245;23;20024;-48
2022/12/09 07:51:48;;;;;;;5.85;2.50;;;;;;;;;;6207691;23;20028;-51
2022/12/09 07:54:16;;;;;;;8.63;3.17;;;;;;;;;;6208195;23;20320;-50
2022/12/09 07:56:50;;;;;;;8.57;3.42;;;;;;;;;;6207316;23;20430;-49
2022/12/09 07:59:25;;;;;;;6.45;3.10;;;;;;;;;;6207662;23;20027;-51
2022/12/09 08:01:52;;;;;;;;;;;;;;;;;;6208514;23;20035;-50
2022/12/09 08:04:31;;;;;;;4.65;2.78;;;;;;;;;;6208438;23;19966;-53
2022/12/09 08:07:00;;;;;;;5.93;3.00;;;;;;;;;;6206187;23;20031;-49
2022/12/09 08:09:34;;;;;;;10.38;3.42;;;;;;;;;;6208143;23;20083;-56
2022/12/09 08:12:02;;;;;;;6.05;3.30;;;;;;;;;;6206791;23;20713;-50
2022/12/09 08:14:29;;;;;;;4.70;2.40;;;;;;;;;;6207863;23;20052;-51
2022/12/09 08:17:03;;;;;;;5.93;2.90;;;;;;;;;;6208434;23;20032;-50
2022/12/09 08:19:31;;;;;;;3.58;2.17;;;;;;;;;;6206824;23;20353;-67
2022/12/09 08:22:05;;;;;;;4.95;2.58;;;;;;;;;;6207320;23;20029;-48
2022/12/09 08:24:33;;;;;;;4.32;2.58;;;;;;;;;;6208175;23;20059;-67
2022/12/09 08:27:00;;;;;;;7.63;2.40;;;;;;;;;;6207694;23;20063;-67
2022/12/09 08:29:35;;;;;;;4.03;2.60;;;;;;;;;;6206506;23;20035;-65
2022/12/09 08:32:02;;;;;;;8.70;3.45;;;;;;;;;;6208370;23;20023;-67
2022/12/09 08:34:37;;;;;;;5.93;2.85;;;;;;;;;;6208911;23;20031;-67
2022/12/09 08:37:04;;;;;;;;;;;;;;;;;;6210099;23;20056;-67
2022/12/09 08:39:32;;;;;;;4.90;2.72;;;;;;;;;;6210375;23;19967;-52
2022/12/09 08:42:06;;;;;;;3.47;2.30;;;;;;;;;;6209685;23;20051;-50
2022/12/09 08:44:40;;;;;;;5.95;2.28;;;;;;;;;;6210466;23;20461;-49
2022/12/09 08:47:13;;;;;;;4.10;2.05;;;;;;;;;;6211142;23;20112;-50
2022/12/09 08:49:48;;;;;;;5.82;2.30;;;;;;;;;;6209442;23;20032;-53
2022/12/09 08:52:21;;;;;;;4.93;2.30;;;;;;;;;;6210616;23;20021;-52
2022/12/09 08:54:57;;;;;;;3.55;2.33;;;;;;;;;;6210309;23;20386;-49
2022/12/09 08:57:31;;;;;;;5.75;3.00;;;;;;;;;;6210505;23;20031;-67
2022/12/09 09:00:06;;;;;;;5.28;3.03;;;;;;;;;;6210651;23;20021;-66
2022/12/09 09:02:34;;;;;;;4.68;2.35;;;;;;;;;;6210213;23;20528;-50
2022/12/09 09:05:02;;;;;;;4.78;2.58;;;;;;;;;;6210201;23;20409;-51
2022/12/09 09:07:37;;;;;;;4.28;2.85;;;;;;;;;;6209595;23;20056;-52
2022/12/09 09:10:06;;;;;;;4.15;2.78;;;;;;;;;;6208688;23;20397;-50
2022/12/09 09:12:40;;;;;;;5.50;2.63;;;;;;;;;;6209540;23;20465;-53
2022/12/09 09:15:10;;;;;;;4.03;2.65;;;;;;;;;;6210134;23;20027;-54
2022/12/09 09:17:38;;;;;;;4.78;2.70;;;;;;;;;;6210357;23;20079;-67
2022/12/09 09:20:18;;;;;;;3.55;2.42;;;;;;;;;;6208671;23;20020;-63
2022/12/09 09:22:46;;;;;;;5.88;3.00;;;;;;;;;;6208123;23;20060;-63
2022/12/09 09:25:46;;;;;;;4.30;2.60;;;;;;;;;;6208951;23;20095;-63
2022/12/09 09:28:20;;;;;;;4.32;2.63;;;;;;;;;;6208878;23;20029;-63
2022/12/09 09:31:01;;;;;;;5.97;2.60;;;;;;;;;;6208685;23;20099;-63
2022/12/09 09:33:36;;;;;;;5.85;2.45;;;;;;;;;;6209397;23;20411;-63
2022/12/09 09:36:06;;;;;;;3.80;2.63;;;;;;;;;;6208214;23;20209;-64
2022/12/09 09:38:40;;;;;;;4.68;3.08;;;;;;;;;;6209075;23;20017;-63
2022/12/09 09:41:34;;;;;;;6.15;2.60;;;;;;;;;;6208097;23;20024;-67
2022/12/09 09:44:14;;;;;;;4.53;2.70;;;;;;;;;;6207649;23;20059;-66
2022/12/09 09:46:43;;;;;;;4.13;2.40;;;;;;;;;;6209354;23;20107;-68
2022/12/09 09:49:27;;;;;;;5.85;2.67;;;;;;;;;;6183553;23;20051;-67
2022/12/09 09:51:55;;;;;;;4.55;2.72;;;;;;;;;;6208563;23;20027;-66
2022/12/09 09:54:29;;;;;;;4.70;2.95;;;;;;;;;;6209185;23;20021;-67
2022/12/09 09:57:00;;;;;;;4.95;3.10;;;;;;;;;;6208979;23;20024;-55
2022/12/09 09:59:33;;;;;;;5.30;2.95;;;;;;;;;;6209612;23;20021;-64
2022/12/09 10:02:07;;;;;;;6.47;3.05;;;;;;;;;;6209019;23;20094;-64
2022/12/09 10:04:42;;;;;;;5.10;2.95;;;;;;;;;;6207928;23;20025;-64
2022/12/09 10:07:17;;;;;;;4.20;3.00;;;;;;;;;;6209309;23;20032;-64
2022/12/09 10:10:10;;;;;;;3.60;2.40;;;;;;;;;;6209304;23;20090;-64
2022/12/09 10:12:39;;;;;;;6.68;3.05;;;;;;;;;;6210424;23;20091;-64
2022/12/09 10:15:15;;;;;;;4.30;2.80;;;;;;;;;;6208478;23;20505;-46
2022/12/09 10:17:54;;;;;;;4.28;3.13;;;;;;;;;;6211083;23;20083;-53
2022/12/09 10:20:29;;;;;;;7.18;4.85;;;;;;;;;;6183666;23;20466;-54
2022/12/09 10:23:02;;;;;;;7.03;4.25;;;;;;;;;;6208716;23;20025;-51
2022/12/09 10:25:51;;;;;;;5.03;3.42;;;;;;;;;;6209410;23;20087;-52
2022/12/09 10:28:43;;;;;;;4.28;2.67;;;;;;;;;;6186230;23;20048;-51
2022/12/09 10:31:23;;;;;;;7.40;3.17;;;;;;;;;;6209742;23;20032;-53
2022/12/09 10:33:51;;;;;;;3.40;2.42;;;;;;;;;;6208075;23;20024;-49
2022/12/09 10:36:26;;;;;;;4.35;2.63;;;;;;;;;;6209580;23;20104;-49
2022/12/09 10:39:03;;;;;;;5.85;2.80;;;;;;;;;;6208737;23;20086;-49
2022/12/09 10:44:37;;;;;;;5.00;2.53;;;;;;;;;;6209082;23;20427;-54
2022/12/09 10:47:06;;;;;;;3.60;2.42;;;;;;;;;;6209634;23;20028;-51
2022/12/09 10:49:34;;;;;;;11.10;3.50;;;;;;;;;;6206790;23;20070;-48
2022/12/09 10:52:09;;;;;;;6.05;3.40;;;;;;;;;;6208524;23;20545;-64
2022/12/09 10:54:36;;;;;;;;;;;;;;;;;;6207803;23;20032;-54
2022/12/09 10:57:11;;;;;;;6.28;3.72;;;;;;;;;;6208175;23;19966;-64
2022/12/09 10:59:39;;;;;;;6.47;3.13;;;;;;;;;;6207299;23;20024;-63
2022/12/09 11:02:20;;;;;;;6.20;2.80;;;;;;;;;;6209128;23;20027;-63
2022/12/09 11:04:47;;;;;;;5.28;2.55;;;;;;;;;;6206836;23;20056;-63
2022/12/09 11:07:23;;;;;;;4.25;2.50;;;;;;;;;;6208806;23;20100;-63
2022/12/09 11:10:03;;;;;;;5.30;3.10;;;;;;;;;;6206653;23;20462;-63
2022/12/09 11:12:38;;;;;;;5.15;2.70;;;;;;;;;;6208208;23;20083;-62
2022/12/09 11:15:23;;;;;;;6.03;2.58;;;;;;;;;;6209048;23;20020;-62
2022/12/09 11:18:01;;;;;;;4.00;2.40;;;;;;;;;;6207005;23;20040;-62
2022/12/09 11:20:30;;;;;;;5.45;2.72;;;;;;;;;;6208623;23;20135;-62
2022/12/09 11:23:13;;;;;;;6.87;2.73;;;;;;;;;;6207094;23;20103;-63
2022/12/09 11:25:58;;;;;;;4.63;3.10;;;;;;;;;;6208563;23;20264;-62
2022/12/09 11:28:42;;;;;;;6.57;3.25;;;;;;;;;;6208042;23;20839;-62
2022/12/09 11:31:15;;;;;;;6.40;3.13;;;;;;;;;;6208044;23;20036;-49
2022/12/09 11:34:02;;;;;;;7.13;3.30;;;;;;;;;;6207666;23;20075;-47
2022/12/09 11:36:34;;;;;;;7.55;3.60;;;;;;;;;;6208286;23;20056;-50
2022/12/09 11:39:10;;;;;;;6.38;3.05;;;;;;;;;;6206475;23;20083;-49
2022/12/09 11:44:30;;;;;;;5.47;3.03;;;;;;;;;;6209017;23;20100;-50
2022/12/09 11:47:00;;;;;;;6.38;3.85;;;;;;;;;;6208646;23;20020;-47
2022/12/09 11:49:29;;;;;;;9.45;3.33;;;;;;;;;;6207831;23;20028;-50
2022/12/09 11:52:05;;;;;;;7.45;3.72;;;;;;;;;;6208292;23;20048;-66
2022/12/09 11:54:39;;;;;;;5.20;2.90;;;;;;;;;;6208452;23;20016;-50
2022/12/09 11:57:19;;;;;;;5.30;3.13;;;;;;;;;;6207579;23;20410;-53
2022/12/09 11:59:52;;;;;;;7.07;3.65;;;;;;;;;;6206590;23;20103;-52
2022/12/09 12:02:29;;;;;;;7.00;3.50;;;;;;;;;;6207725;23;20017;-48
2022/12/09 12:05:08;;;;;;;6.05;3.55;;;;;;;;;;6206639;23;20459;-48
2022/12/09 12:08:06;;;;;;;8.00;3.13;;;;;;;;;;6208485;23;20030;-53
2022/12/09 12:10:40;;;;;;;7.10;2.97;;;;;;;;;;6209738;23;20028;-66
2022/12/09 12:13:33;;;;;;;6.75;2.88;;;;;;;;;;6209481;23;20023;-50
2022/12/09 12:16:04;;;;;;;7.03;3.42;;;;;;;;;;6209086;23;20752;-49
2022/12/09 12:18:40;;;;;;;5.93;3.50;;;;;;;;;;6208680;23;20017;-54
2022/12/09 12:21:34;;;;;;;8.18;3.58;;;;;;;;;;6209638;23;20060;-52
2022/12/09 12:24:19;;;;;;;7.30;3.33;;;;;;;;;;6209363;23;20354;-54
2022/12/09 12:27:10;;;;;;;6.40;3.60;;;;;;;;;;6209318;23;20095;-46
2022/12/09 12:29:53;;;;;;;8.80;3.63;;;;;;;;;;6208355;23;20075;-62
2022/12/09 12:32:20;;;;;;;5.38;3.53;;;;;;;;;;6209889;23;20020;-51
2022/12/09 12:34:53;;;;;;;5.97;3.50;;;;;;;;;;6209478;23;20035;-53
2022/12/09 12:37:20;;;;;;;8.93;3.70;;;;;;;;;;6211384;23;20028;-53
2022/12/09 12:39:56;;;;;;;10.00;3.72;;;;;;;;;;6209286;23;20483;-52
2022/12/09 12:46:15;;;;;;;6.72;3.67;;;;;;;;;;6209887;23;20075;-53
2022/12/09 12:46:16;;;;;;;8.18;3.78;;;;;;;;;;6208970;23;20096;-63
2022/12/09 12:49:09;;;;;;;6.10;3.78;;;;;;;;;;6197154;23;20020;-48
2022/12/09 12:51:52;;;;;;;5.82;3.15;;;;;;;;;;6208941;23;20030;-48
2022/12/09 12:54:43;;;;;;;8.77;4.43;;;;;;;;;;6209520;23;20035;-50
2022/12/09 12:57:28;;;;;;;9.18;3.60;;;;;;;;;;6210418;23;20494;-48
2022/12/09 13:00:07;;;;;;;7.75;4.43;;;;;;;;;;6209652;23;20048;-49
2022/12/09 13:02:46;;;;;;;10.35;3.97;;;;;;;;;;6209576;23;20040;-52
2022/12/09 13:05:22;;;;;;;5.70;3.70;;;;;;;;;;6209579;23;20056;-66
2022/12/09 13:07:58;;;;;;;6.88;3.50;;;;;;;;;;6211302;23;20099;-49
2022/12/09 13:10:28;;;;;;;8.18;3.72;;;;;;;;;;6209516;23;20738;-63
2022/12/09 13:13:04;;;;;;;7.50;3.75;;;;;;;;;;6209800;23;20095;-63
2022/12/09 13:15:45;;;;;;;8.23;4.15;;;;;;;;;;6209527;23;20028;-63
2022/12/09 13:18:20;;;;;;;7.65;4.10;;;;;;;;;;6210235;23;20529;-62
2022/12/09 13:20:49;;;;;;;10.13;4.13;;;;;;;;;;6209671;23;20100;-63
2022/12/09 13:23:19;;;;;;;9.55;4.18;;;;;;;;;;6210292;23;20127;-62
2022/12/09 13:26:15;;;;;;;9.05;4.22;;;;;;;;;;6207936;23;20474;-52
2022/12/09 13:28:54;;;;;;;8.43;4.35;;;;;;;;;;6208706;23;20103;-52
2022/12/09 13:31:25;;;;;;;10.27;4.68;;;;;;;;;;6210042;23;20024;-52
2022/12/09 13:34:06;;;;;;;10.70;4.60;;;;;;;;;;6208581;23;20063;-50
2022/12/09 13:36:41;;;;;;;9.70;3.97;;;;;;;;;;6211405;23;20017;-52
2022/12/09 13:39:45;;;;;;;8.02;4.00;;;;;;;;;;6208339;23;20024;-48
2022/12/09 13:45:19;;;;;;;8.05;4.20;;;;;;;;;;6207481;23;20059;-46
2022/12/09 13:47:46;;;;;;;11.93;4.75;;;;;;;;;;6207813;23;20020;-48
2022/12/09 13:50:35;;;;;;;8.02;4.50;;;;;;;;;;6208066;23;20104;-48
2022/12/09 13:53:19;;;;;;;12.90;4.93;;;;;;;;;;6209230;23;20017;-49
2022/12/09 13:56:01;;;;;;;10.23;4.68;;;;;;;;;;6206919;23;20021;-52
2022/12/09 13:58:32;;;;;;;12.25;4.78;;;;;;;;;;6208858;23;20406;-51
2022/12/09 14:01:08;;;;;;;9.45;4.90;;;;;;;;;;6207337;23;20103;-51
2022/12/09 14:03:37;;;;;;;12.85;4.70;;;;;;;;;;6207531;23;20024;-46
2022/12/09 14:06:38;;;;;;;12.13;4.50;;;;;;;;;;6208613;23;20040;-53
2022/12/09 14:09:19;;;;;;;12.88;4.75;;;;;;;;;;6151520;23;20056;-51
2022/12/09 14:11:53;;;;;;;9.88;4.68;;;;;;;;;;6207320;23;20027;-54
2022/12/09 14:14:23;;;;;;;11.70;4.55;;;;;;;;;;6207657;23;20035;-55
2022/12/09 14:16:59;;;;;;;17.15;5.30;;;;;;;;;;6208569;23;20099;-49
2022/12/09 14:19:28;;;;;;;12.75;5.60;;;;;;;;;;6208618;23;20024;-49
2022/12/09 14:22:20;;;;;;;12.68;4.53;;;;;;;;;;6208011;23;20031;-47
2022/12/09 14:24:50;;;;;;;11.15;4.43;;;;;;;;;;6207407;23;20020;-50
2022/12/09 14:27:38;;;;;;;7.28;5.07;;;;;;;;;;6207997;23;20103;-46
2022/12/09 14:30:44;;;;;;;14.23;4.95;;;;;;;;;;6208449;23;20621;-47
2022/12/09 14:33:37;;;;;;;12.93;5.57;;;;;;;;;;6208355;23;20021;-47
2022/12/09 14:36:19;;;;;;;13.15;6.10;;;;;;;;;;6208248;23;20025;-47
2022/12/09 14:38:56;;;;;;;21.40;7.47;;;;;;;;;;6207675;23;20095;-48
2022/12/09 14:41:58;;;;;;;22.05;8.70;;;;;;;;;;6206639;23;20017;-50
2022/12/09 14:44:39;;;;;;;15.65;7.22;;;;;;;;;;6206938;23;20103;-68
2022/12/09 14:47:14;;;;;;;13.43;6.53;;;;;;;;;;6207764;23;20035;-68
2022/12/09 14:49:49;;;;;;;13.55;6.43;;;;;;;;;;6206813;23;20398;-68
2022/12/09 14:52:20;;;;;;;18.65;6.90;;;;;;;;;;6208110;23;20027;-68
2022/12/09 14:54:55;;;;;;;14.20;7.00;;;;;;;;;;6208925;23;20120;-69
2022/12/09 14:57:31;;;;;;;15.32;6.55;;;;;;;;;;6208342;23;20020;-68
2022/12/09 15:00:06;;;;;;;8.55;4.45;;;;;;;;;;6207912;23;20466;-51
2022/12/09 15:02:35;;;;;;;16.38;7.30;;;;;;;;;;6209124;23;20099;-53
2022/12/09 15:05:29;;;;;;;16.10;6.47;;;;;;;;;;6207433;23;20795;-58
2022/12/09 15:07:56;;;;;;;10.18;5.03;;;;;;;;;;6207524;23;20021;-52
2022/12/09 15:10:33;;;;;;;11.93;5.32;;;;;;;;;;6207161;23;20064;-52
2022/12/09 15:13:01;;;;;;;13.77;5.60;;;;;;;;;;6207293;23;20021;-55
2022/12/09 15:15:36;;;;;;;16.30;6.63;;;;;;;;;;6207007;23;20027;-52
2022/12/09 15:18:08;;;;;;;13.05;6.85;;;;;;;;;;6207072;23;20021;-49
2022/12/09 15:20:41;;;;;;;;;;;;;;;;;;6208802;23;20099;-55
2022/12/09 15:23:21;;;;;;;15.90;5.40;;;;;;;;;;6207248;23;19952;-65
2022/12/09 15:26:11;;;;;;;10.38;4.90;;;;;;;;;;6205106;23;20537;-64
2022/12/09 15:28:50;;;;;;;11.00;5.93;;;;;;;;;;6208256;23;20052;-65
2022/12/09 15:31:23;;;;;;;;;;;;;;;;;;6207906;23;20021;-65
2022/12/09 15:33:52;;;;;;;8.93;4.40;;;;;;;;;;6208312;23;20353;-65
2022/12/09 15:36:22;;;;;;;10.43;5.43;;;;;;;;;;6208665;23;20021;-65